sensor_id;sensor_type;location;lat;lon;timestamp;pressure;altitude;pressure_sealevel;temperature;humidity
41712;BME280;27399;51.516;13.670;2023-04-26T00:01:47;100342.81;;;8.88;64.11
41712;BME280;27399;51.516;13.670;2023-04-26T00:04:13;100336.59;;;8.86;63.79
41712;BME280;27399;51.516;13.670;2023-04-26T00:06:38;100338.38;;;8.93;64.38
41712;BME280;27399;51.516;13.670;2023-04-26T00:09:04;100340.09;;;8.94;64.39
41712;BME280;27399;51.516;13.670;2023-04-26T00:11:31;100345.41;;;9.08;64.08
41712;BME280;27399;51.516;13.670;2023-04-26T00:13:59;100341.03;;;8.93;64.36
41712;BME280;27399;51.516;13.670;2023-04-26T00:16:25;100339.28;;;8.74;64.77
41712;BME280;27399;51.516;13.670;2023-04-26T00:18:50;100347.22;;;8.89;65.72
41712;BME280;27399;51.516;13.670;2023-04-26T00:21:16;100353.41;;;8.97;64.94
41712;BME280;27399;51.516;13.670;2023-04-26T00:23:41;100349.00;;;8.79;65.54
41712;BME280;27399;51.516;13.670;2023-04-26T00:26:07;100351.63;;;9.07;64.15
41712;BME280;27399;51.516;13.670;2023-04-26T00:28:33;100354.34;;;8.86;64.10
41712;BME280;27399;51.516;13.670;2023-04-26T00:30:58;100360.56;;;8.72;64.45
41712;BME280;27399;51.516;13.670;2023-04-26T00:33:24;100358.72;;;8.94;64.69
41712;BME280;27399;51.516;13.670;2023-04-26T00:35:50;100363.22;;;8.71;65.54
41712;BME280;27399;51.516;13.670;2023-04-26T00:38:16;100363.25;;;8.50;65.25
41712;BME280;27399;51.516;13.670;2023-04-26T00:40:41;100356.13;;;8.82;64.79
41712;BME280;27399;51.516;13.670;2023-04-26T00:43:07;100353.50;;;8.56;65.17
41712;BME280;27399;51.516;13.670;2023-04-26T00:45:33;100371.25;;;8.57;65.25
41712;BME280;27399;51.516;13.670;2023-04-26T00:48:01;100375.66;;;8.64;65.40
41712;BME280;27399;51.516;13.670;2023-04-26T00:50:28;100375.63;;;8.76;65.49
41712;BME280;27399;51.516;13.670;2023-04-26T00:52:58;100378.31;;;8.67;65.42
41712;BME280;27399;51.516;13.670;2023-04-26T00:55:25;100375.63;;;8.76;66.23
41712;BME280;27399;51.516;13.670;2023-04-26T00:57:51;100374.75;;;8.70;65.86
41712;BME280;27399;51.516;13.670;2023-04-26T01:00:17;100377.41;;;8.79;65.54
41712;BME280;27399;51.516;13.670;2023-04-26T01:02:43;100376.50;;;8.77;65.52
41712;BME280;27399;51.516;13.670;2023-04-26T01:05:09;100374.75;;;8.62;65.41
41712;BME280;27399;51.516;13.670;2023-04-26T01:07:36;100382.72;;;8.71;65.99
41712;BME280;27399;51.516;13.670;2023-04-26T01:10:03;100380.03;;;8.83;65.62
41712;BME280;27399;51.516;13.670;2023-04-26T01:12:30;100386.28;;;8.58;66.34
41712;BME280;27399;51.516;13.670;2023-04-26T01:14:56;100344.66;;;8.50;66.89
41712;BME280;27399;51.516;13.670;2023-04-26T01:17:23;100366.75;;;8.45;66.74
41712;BME280;27399;51.516;13.670;2023-04-26T01:19:50;100376.53;;;8.47;67.19
41712;BME280;27399;51.516;13.670;2023-04-26T01:22:16;100383.63;;;8.61;67.64
41712;BME280;27399;51.516;13.670;2023-04-26T01:24:47;100378.31;;;8.45;67.68
41712;BME280;27399;51.516;13.670;2023-04-26T01:27:14;100387.16;;;8.50;68.04
41712;BME280;27399;51.516;13.670;2023-04-26T01:29:41;100388.94;;;8.58;67.85
41712;BME280;27399;51.516;13.670;2023-04-26T01:32:07;100385.41;;;8.56;67.25
41712;BME280;27399;51.516;13.670;2023-04-26T01:34:33;100389.81;;;8.52;67.29
41712;BME280;27399;51.516;13.670;2023-04-26T01:36:59;100392.50;;;8.49;67.94
41712;BME280;27399;51.516;13.670;2023-04-26T01:39:26;100401.34;;;8.54;67.83
41712;BME280;27399;51.516;13.670;2023-04-26T01:41:52;100399.56;;;8.51;67.60
41712;BME280;27399;51.516;13.670;2023-04-26T01:44:18;100401.31;;;8.37;67.61
41712;BME280;27399;51.516;13.670;2023-04-26T01:46:43;100396.91;;;8.53;67.40
41712;BME280;27399;51.516;13.670;2023-04-26T01:49:09;100394.25;;;8.48;68.04
41712;BME280;27399;51.516;13.670;2023-04-26T01:51:35;100404.84;;;8.22;68.61
41712;BME280;27399;51.516;13.670;2023-04-26T01:54:01;100394.25;;;8.33;68.54
41712;BME280;27399;51.516;13.670;2023-04-26T01:56:27;100392.44;;;8.38;68.27
41712;BME280;27399;51.516;13.670;2023-04-26T01:58:52;100393.34;;;8.31;68.43
41712;BME280;27399;51.516;13.670;2023-04-26T02:01:20;100397.78;;;8.29;68.53
41712;BME280;27399;51.516;13.670;2023-04-26T02:03:46;100399.53;;;8.17;68.66
41712;BME280;27399;51.516;13.670;2023-04-26T02:06:13;100401.31;;;8.25;69.31
41712;BME280;27399;51.516;13.670;2023-04-26T02:08:39;100405.72;;;8.19;69.25
41712;BME280;27399;51.516;13.670;2023-04-26T02:11:04;100399.56;;;8.14;68.96
41712;BME280;27399;51.516;13.670;2023-04-26T02:13:30;100398.59;;;7.81;69.83
41712;BME280;27399;51.516;13.670;2023-04-26T02:15:56;100401.31;;;8.12;69.05
41712;BME280;27399;51.516;13.670;2023-04-26T02:18:22;100388.91;;;8.08;69.04
41712;BME280;27399;51.516;13.670;2023-04-26T02:20:48;100403.97;;;8.18;69.12
41712;BME280;27399;51.516;13.670;2023-04-26T02:23:13;100399.50;;;7.89;69.42
41712;BME280;27399;51.516;13.670;2023-04-26T02:25:39;100400.41;;;8.05;69.15
41712;BME280;27399;51.516;13.670;2023-04-26T02:28:06;100404.84;;;8.08;68.81
41712;BME280;27399;51.516;13.670;2023-04-26T02:30:32;100406.59;;;8.01;69.66
41712;BME280;27399;51.516;13.670;2023-04-26T02:32:57;100403.94;;;8.06;69.40
41712;BME280;27399;51.516;13.670;2023-04-26T02:35:23;100404.81;;;8.05;69.13
41712;BME280;27399;51.516;13.670;2023-04-26T02:37:49;100398.59;;;7.83;70.01
41712;BME280;27399;51.516;13.670;2023-04-26T02:40:19;100395.97;;;7.94;69.10
41712;BME280;27399;51.516;13.670;2023-04-26T02:42:46;100404.78;;;7.83;70.17
41712;BME280;27399;51.516;13.670;2023-04-26T02:45:11;100410.13;;;8.05;70.03
41712;BME280;27399;51.516;13.670;2023-04-26T02:47:37;100406.53;;;7.78;70.93
41712;BME280;27399;51.516;13.670;2023-04-26T02:50:04;100403.91;;;7.86;70.69
41712;BME280;27399;51.516;13.670;2023-04-26T02:52:32;100401.25;;;7.84;70.80
41712;BME280;27399;51.516;13.670;2023-04-26T02:54:57;100405.69;;;7.82;71.12
41712;BME280;27399;51.516;13.670;2023-04-26T02:57:23;100408.34;;;7.82;70.52
41712;BME280;27399;51.516;13.670;2023-04-26T02:59:49;100403.88;;;7.73;70.83
41712;BME280;27399;51.516;13.670;2023-04-26T03:02:15;100403.00;;;7.79;70.57
41712;BME280;27399;51.516;13.670;2023-04-26T03:04:41;100411.00;;;7.84;69.98
41712;BME280;27399;51.516;13.670;2023-04-26T03:07:06;100406.56;;;7.77;70.68
41712;BME280;27399;51.516;13.670;2023-04-26T03:09:32;100407.44;;;7.77;70.69
41712;BME280;27399;51.516;13.670;2023-04-26T03:11:59;100407.41;;;7.68;70.51
41712;BME280;27399;51.516;13.670;2023-04-26T03:14:25;100409.22;;;7.81;71.11
41712;BME280;27399;51.516;13.670;2023-04-26T03:16:51;100422.44;;;7.66;70.67
41712;BME280;27399;51.516;13.670;2023-04-26T03:19:17;100420.66;;;7.58;70.52
41712;BME280;27399;51.516;13.670;2023-04-26T03:21:43;100418.91;;;7.67;70.59
41712;BME280;27399;51.516;13.670;2023-04-26T03:24:09;100413.56;;;7.57;71.02
41712;BME280;27399;51.516;13.670;2023-04-26T03:26:36;100416.19;;;7.53;70.83
41712;BME280;27399;51.516;13.670;2023-04-26T03:29:01;100410.06;;;7.68;70.29
41712;BME280;27399;51.516;13.670;2023-04-26T03:31:27;100414.44;;;7.58;70.55
41712;BME280;27399;51.516;13.670;2023-04-26T03:33:53;100407.31;;;7.43;71.13
41712;BME280;27399;51.516;13.670;2023-04-26T03:36:18;100424.16;;;7.51;70.76
41712;BME280;27399;51.516;13.670;2023-04-26T03:38:44;100416.25;;;7.60;70.51
41712;BME280;27399;51.516;13.670;2023-04-26T03:41:10;100417.06;;;7.53;70.79
41712;BME280;27399;51.516;13.670;2023-04-26T03:43:36;100416.22;;;7.51;70.72
41712;BME280;27399;51.516;13.670;2023-04-26T03:46:01;100423.28;;;7.55;70.10
41712;BME280;27399;51.516;13.670;2023-04-26T03:48:27;100418.81;;;7.45;70.61
41712;BME280;27399;51.516;13.670;2023-04-26T03:50:52;100421.44;;;7.34;70.59
41712;BME280;27399;51.516;13.670;2023-04-26T03:53:18;100424.06;;;7.29;71.00
41712;BME280;27399;51.516;13.670;2023-04-26T03:55:44;100424.00;;;7.20;71.35
41712;BME280;27399;51.516;13.670;2023-04-26T03:58:09;100435.56;;;7.35;71.28
41712;BME280;27399;51.516;13.670;2023-04-26T04:00:39;100420.47;;;7.20;71.44
41712;BME280;27399;51.516;13.670;2023-04-26T04:03:08;100420.56;;;7.38;71.31
41712;BME280;27399;51.516;13.670;2023-04-26T04:05:34;100417.84;;;7.24;70.90
41712;BME280;27399;51.516;13.670;2023-04-26T04:08:00;100432.91;;;7.35;71.07
41712;BME280;27399;51.516;13.670;2023-04-26T04:10:26;100435.56;;;7.32;70.92
41712;BME280;27399;51.516;13.670;2023-04-26T04:12:52;100437.38;;;7.40;70.90
41712;BME280;27399;51.516;13.670;2023-04-26T04:15:19;100441.78;;;7.37;71.41
41712;BME280;27399;51.516;13.670;2023-04-26T04:17:45;100444.34;;;7.18;71.33
41712;BME280;27399;51.516;13.670;2023-04-26T04:20:11;100434.69;;;7.29;71.38
41712;BME280;27399;51.516;13.670;2023-04-26T04:22:37;100448.69;;;7.07;71.72
41712;BME280;27399;51.516;13.670;2023-04-26T04:25:06;100445.19;;;7.14;72.05
41712;BME280;27399;51.516;13.670;2023-04-26T04:27:32;100446.97;;;7.13;71.76
41712;BME280;27399;51.516;13.670;2023-04-26T04:29:57;100447.78;;;7.05;72.71
41712;BME280;27399;51.516;13.670;2023-04-26T04:32:23;100444.41;;;7.34;71.50
41712;BME280;27399;51.516;13.670;2023-04-26T04:34:49;100449.69;;;7.31;72.48
41712;BME280;27399;51.516;13.670;2023-04-26T04:37:16;100448.81;;;7.32;71.81
41712;BME280;27399;51.516;13.670;2023-04-26T04:39:42;100454.91;;;7.09;72.95
41712;BME280;27399;51.516;13.670;2023-04-26T04:42:08;100454.13;;;7.28;71.97
41712;BME280;27399;51.516;13.670;2023-04-26T04:44:34;100457.66;;;7.31;72.65
41712;BME280;27399;51.516;13.670;2023-04-26T04:47:01;100461.16;;;7.23;73.08
41712;BME280;27399;51.516;13.670;2023-04-26T04:49:27;100457.59;;;7.18;72.33
41712;BME280;27399;51.516;13.670;2023-04-26T04:51:53;100471.78;;;7.23;72.32
41712;BME280;27399;51.516;13.670;2023-04-26T04:54:18;100470.06;;;7.35;71.57
41712;BME280;27399;51.516;13.670;2023-04-26T04:56:44;100472.72;;;7.36;72.24
41712;BME280;27399;51.516;13.670;2023-04-26T04:59:10;100479.81;;;7.34;71.60
41712;BME280;27399;51.516;13.670;2023-04-26T05:01:36;100474.25;;;6.95;72.04
41712;BME280;27399;51.516;13.670;2023-04-26T05:04:03;100476.16;;;7.21;71.63
41712;BME280;27399;51.516;13.670;2023-04-26T05:06:29;100482.41;;;7.26;71.70
41712;BME280;27399;51.516;13.670;2023-04-26T05:08:58;100483.25;;;7.21;72.00
41712;BME280;27399;51.516;13.670;2023-04-26T05:11:23;100464.72;;;7.25;72.46
41712;BME280;27399;51.516;13.670;2023-04-26T05:13:49;100483.38;;;7.44;71.55
41712;BME280;27399;51.516;13.670;2023-04-26T05:16:15;100485.09;;;7.33;71.99
41712;BME280;27399;51.516;13.670;2023-04-26T05:18:41;100477.25;;;7.54;72.33
41712;BME280;27399;51.516;13.670;2023-04-26T05:21:07;100492.28;;;7.54;71.66
41712;BME280;27399;51.516;13.670;2023-04-26T05:23:32;100485.28;;;7.70;71.33
41712;BME280;27399;51.516;13.670;2023-04-26T05:26:05;100495.81;;;7.51;71.55
41712;BME280;27399;51.516;13.670;2023-04-26T05:28:31;100495.88;;;7.68;70.99
41712;BME280;27399;51.516;13.670;2023-04-26T05:30:57;100489.59;;;7.52;70.82
41712;BME280;27399;51.516;13.670;2023-04-26T05:33:24;100493.03;;;7.29;70.85
41712;BME280;27399;51.516;13.670;2023-04-26T05:35:49;100503.59;;;7.23;71.05
41712;BME280;27399;51.516;13.670;2023-04-26T05:38:16;100502.00;;;7.50;71.73
41712;BME280;27399;51.516;13.670;2023-04-26T05:40:42;100507.34;;;7.58;71.53
41712;BME280;27399;51.516;13.670;2023-04-26T05:43:08;100504.59;;;7.39;71.64
41712;BME280;27399;51.516;13.670;2023-04-26T05:45:33;100508.16;;;7.44;71.53
41712;BME280;27399;51.516;13.670;2023-04-26T05:47:59;100509.84;;;7.30;71.30
41712;BME280;27399;51.516;13.670;2023-04-26T05:50:25;100506.47;;;7.57;71.58
41712;BME280;27399;51.516;13.670;2023-04-26T05:52:51;100510.00;;;7.58;70.44
41712;BME280;27399;51.516;13.670;2023-04-26T05:55:17;100513.63;;;7.71;70.35
41712;BME280;27399;51.516;13.670;2023-04-26T05:57:44;100514.50;;;7.74;70.42
41712;BME280;27399;51.516;13.670;2023-04-26T06:00:10;100508.34;;;7.82;71.45
41712;BME280;27399;51.516;13.670;2023-04-26T06:02:36;100523.38;;;7.84;70.99
41712;BME280;27399;51.516;13.670;2023-04-26T06:05:02;100521.59;;;7.83;70.89
41712;BME280;27399;51.516;13.670;2023-04-26T06:07:29;100519.78;;;7.73;70.17
41712;BME280;27399;51.516;13.670;2023-04-26T06:09:55;100502.22;;;8.06;70.86
41712;BME280;27399;51.516;13.670;2023-04-26T06:12:21;100509.38;;;8.32;70.32
41712;BME280;27399;51.516;13.670;2023-04-26T06:14:46;100512.91;;;8.21;70.35
41712;BME280;27399;51.516;13.670;2023-04-26T06:17:12;100513.75;;;8.08;70.45
41712;BME280;27399;51.516;13.670;2023-04-26T06:19:38;100497.84;;;8.25;69.13
41712;BME280;27399;51.516;13.670;2023-04-26T06:22:04;100513.78;;;8.25;69.68
41712;BME280;27399;51.516;13.670;2023-04-26T06:24:29;100504.97;;;8.34;69.50
41712;BME280;27399;51.516;13.670;2023-04-26T06:26:55;100510.25;;;8.31;69.92
41712;BME280;27399;51.516;13.670;2023-04-26T06:29:21;100511.22;;;8.51;69.74
41712;BME280;27399;51.516;13.670;2023-04-26T06:31:46;100515.59;;;8.40;68.84
41712;BME280;27399;51.516;13.670;2023-04-26T06:34:12;100520.06;;;8.52;68.65
41712;BME280;27399;51.516;13.670;2023-04-26T06:36:37;100516.56;;;8.55;68.68
41712;BME280;27399;51.516;13.670;2023-04-26T06:39:03;100511.22;;;8.70;70.64
41712;BME280;27399;51.516;13.670;2023-04-26T06:41:29;100518.34;;;8.77;68.95
41712;BME280;27399;51.516;13.670;2023-04-26T06:43:55;100525.41;;;8.81;67.97
41712;BME280;27399;51.516;13.670;2023-04-26T06:46:21;100513.00;;;8.90;69.45
41712;BME280;27399;51.516;13.670;2023-04-26T06:48:46;100529.81;;;8.58;67.70
41712;BME280;27399;51.516;13.670;2023-04-26T06:51:12;100523.66;;;8.83;67.92
41712;BME280;27399;51.516;13.670;2023-04-26T06:53:38;100524.53;;;8.82;67.71
41712;BME280;27399;51.516;13.670;2023-04-26T06:56:03;100526.31;;;8.85;66.72
41712;BME280;27399;51.516;13.670;2023-04-26T06:58:32;100525.44;;;9.02;67.76
41712;BME280;27399;51.516;13.670;2023-04-26T07:00:58;100529.84;;;9.29;67.63
41712;BME280;27399;51.516;13.670;2023-04-26T07:03:23;100528.03;;;9.42;67.13
41712;BME280;27399;51.516;13.670;2023-04-26T07:05:49;100533.38;;;9.45;66.21
41712;BME280;27399;51.516;13.670;2023-04-26T07:08:15;100530.66;;;9.53;67.01
41712;BME280;27399;51.516;13.670;2023-04-26T07:10:40;100530.69;;;9.46;65.90
41712;BME280;27399;51.516;13.670;2023-04-26T07:13:06;100528.91;;;9.49;64.86
41712;BME280;27399;51.516;13.670;2023-04-26T07:15:32;100529.75;;;9.66;65.65
41712;BME280;27399;51.516;13.670;2023-04-26T07:17:58;100538.63;;;9.68;63.83
41712;BME280;27399;51.516;13.670;2023-04-26T07:20:23;100535.94;;;9.81;64.82
41712;BME280;27399;51.516;13.670;2023-04-26T07:22:49;100527.91;;;9.85;64.99
41712;BME280;27399;51.516;13.670;2023-04-26T07:25:16;100535.09;;;9.61;63.42
41712;BME280;27399;51.516;13.670;2023-04-26T07:27:42;100525.28;;;9.81;63.27
41712;BME280;27399;51.516;13.670;2023-04-26T07:30:08;100526.13;;;9.89;63.83
41712;BME280;27399;51.516;13.670;2023-04-26T07:32:34;100516.34;;;9.85;63.78
41712;BME280;27399;51.516;13.670;2023-04-26T07:35:05;100517.22;;;9.91;63.29
41712;BME280;27399;51.516;13.670;2023-04-26T07:37:39;100523.38;;;10.07;62.75
41712;BME280;27399;51.516;13.670;2023-04-26T07:40:05;100519.81;;;10.08;63.14
41712;BME280;27399;51.516;13.670;2023-04-26T07:42:32;100526.84;;;10.27;63.74
41712;BME280;27399;51.516;13.670;2023-04-26T07:44:58;100533.03;;;10.30;63.39
41712;BME280;27399;51.516;13.670;2023-04-26T07:47:24;100532.22;;;10.14;61.56
41712;BME280;27399;51.516;13.670;2023-04-26T07:49:52;100538.38;;;10.27;62.06
41712;BME280;27399;51.516;13.670;2023-04-26T07:52:19;100525.00;;;10.43;61.79
41712;BME280;27399;51.516;13.670;2023-04-26T07:54:45;100526.81;;;10.28;60.23
41712;BME280;27399;51.516;13.670;2023-04-26T07:57:11;100535.69;;;10.36;60.57
41712;BME280;27399;51.516;13.670;2023-04-26T07:59:36;100533.91;;;10.35;60.27
41712;BME280;27399;51.516;13.670;2023-04-26T08:02:02;100529.50;;;10.27;60.68
41712;BME280;27399;51.516;13.670;2023-04-26T08:04:32;100532.34;;;9.94;61.22
41712;BME280;27399;51.516;13.670;2023-04-26T08:06:59;100529.50;;;10.23;60.70
41712;BME280;27399;51.516;13.670;2023-04-26T08:09:26;100528.63;;;10.23;60.97
41712;BME280;27399;51.516;13.670;2023-04-26T08:11:52;100534.91;;;10.13;59.86
41712;BME280;27399;51.516;13.670;2023-04-26T08:14:17;100523.25;;;10.35;61.42
41712;BME280;27399;51.516;13.670;2023-04-26T08:16:43;100532.34;;;9.94;60.77
41712;BME280;27399;51.516;13.670;2023-04-26T08:19:08;100541.97;;;10.20;58.74
41712;BME280;27399;51.516;13.670;2023-04-26T08:21:34;100539.25;;;10.31;59.75
41712;BME280;27399;51.516;13.670;2023-04-26T08:24:00;100533.97;;;10.17;60.26
41712;BME280;27399;51.516;13.670;2023-04-26T08:26:25;100534.81;;;10.28;61.24
41712;BME280;27399;51.516;13.670;2023-04-26T08:28:51;100529.47;;;10.42;59.96
41712;BME280;27399;51.516;13.670;2023-04-26T08:31:16;100525.72;;;10.65;60.48
41712;BME280;27399;51.516;13.670;2023-04-26T08:33:42;100534.84;;;10.25;58.36
41712;BME280;27399;51.516;13.670;2023-04-26T08:36:07;100526.06;;;10.04;59.60
41712;BME280;27399;51.516;13.670;2023-04-26T08:38:33;100538.41;;;10.21;59.47
41712;BME280;27399;51.516;13.670;2023-04-26T08:40:59;100533.19;;;9.98;59.61
41712;BME280;27399;51.516;13.670;2023-04-26T08:43:27;100526.84;;;10.23;59.16
41712;BME280;27399;51.516;13.670;2023-04-26T08:45:53;100535.69;;;10.27;59.89
41712;BME280;27399;51.516;13.670;2023-04-26T08:48:19;100530.34;;;10.38;59.76
41712;BME280;27399;51.516;13.670;2023-04-26T08:50:47;100524.00;;;10.54;59.39
41712;BME280;27399;51.516;13.670;2023-04-26T08:53:13;100530.09;;;10.77;59.90
41712;BME280;27399;51.516;13.670;2023-04-26T08:55:40;100517.59;;;10.85;58.51
41712;BME280;27399;51.516;13.670;2023-04-26T08:58:07;100519.31;;;10.94;57.07
41712;BME280;27399;51.516;13.670;2023-04-26T09:00:33;100516.59;;;10.98;57.52
41712;BME280;27399;51.516;13.670;2023-04-26T09:02:59;100521.84;;;11.06;58.37
41712;BME280;27399;51.516;13.670;2023-04-26T09:05:25;100532.56;;;11.01;57.84
41712;BME280;27399;51.516;13.670;2023-04-26T09:08:01;100530.84;;;10.94;57.46
41712;BME280;27399;51.516;13.670;2023-04-26T09:10:29;100532.59;;;10.97;58.04
41712;BME280;27399;51.516;13.670;2023-04-26T09:12:56;100541.56;;;10.90;57.53
41712;BME280;27399;51.516;13.670;2023-04-26T09:15:23;100539.84;;;10.82;55.92
41712;BME280;27399;51.516;13.670;2023-04-26T09:17:49;100546.03;;;10.83;54.99
41712;BME280;27399;51.516;13.670;2023-04-26T09:22:46;100544.28;;;10.82;57.96
41712;BME280;27399;51.516;13.670;2023-04-26T09:25:12;100535.53;;;10.61;56.76
41712;BME280;27399;51.516;13.670;2023-04-26T09:27:42;100542.63;;;10.64;59.42
41712;BME280;27399;51.516;13.670;2023-04-26T09:32:44;100548.63;;;10.92;58.28
41712;BME280;27399;51.516;13.670;2023-04-26T09:35:35;100536.72;;;11.32;58.58
41712;BME280;27399;51.516;13.670;2023-04-26T09:38:01;100541.78;;;11.60;56.94
41712;BME280;27399;51.516;13.670;2023-04-26T09:40:30;100539.69;;;11.88;55.60
41712;BME280;27399;51.516;13.670;2023-04-26T09:43:01;100538.16;;;11.67;57.41
41712;BME280;27399;51.516;13.670;2023-04-26T09:45:27;100543.44;;;11.72;55.00
41712;BME280;27399;51.516;13.670;2023-04-26T09:47:54;100546.44;;;11.39;54.61
41712;BME280;27399;51.516;13.670;2023-04-26T09:50:27;100543.94;;;11.27;55.07
41712;BME280;27399;51.516;13.670;2023-04-26T09:52:54;100548.28;;;11.32;55.06
41712;BME280;27399;51.516;13.670;2023-04-26T09:55:28;100547.47;;;11.24;56.86
41712;BME280;27399;51.516;13.670;2023-04-26T09:57:55;100556.34;;;11.29;58.36
41712;BME280;27399;51.516;13.670;2023-04-26T10:00:23;100554.59;;;11.25;59.11
41712;BME280;27399;51.516;13.670;2023-04-26T10:02:54;100557.25;;;11.28;57.76
41712;BME280;27399;51.516;13.670;2023-04-26T10:05:21;100548.38;;;11.25;57.18
41712;BME280;27399;51.516;13.670;2023-04-26T10:07:48;100561.72;;;11.26;57.66
41712;BME280;27399;51.516;13.670;2023-04-26T10:10:15;100558.03;;;11.40;58.19
41712;BME280;27399;51.516;13.670;2023-04-26T10:12:42;100549.16;;;11.35;57.59
41712;BME280;27399;51.516;13.670;2023-04-26T10:15:10;100552.63;;;11.46;56.75
41712;BME280;27399;51.516;13.670;2023-04-26T10:17:37;100548.97;;;11.58;57.42
41712;BME280;27399;51.516;13.670;2023-04-26T10:23:25;100526.63;;;11.63;56.16
41712;BME280;27399;51.516;13.670;2023-04-26T10:25:52;100550.47;;;11.82;57.41
41712;BME280;27399;51.516;13.670;2023-04-26T10:34:29;100538.13;;;11.69;55.25
41712;BME280;27399;51.516;13.670;2023-04-26T10:37:14;100535.59;;;11.56;54.57
41712;BME280;27399;51.516;13.670;2023-04-26T10:39:44;100542.38;;;11.85;54.51
41712;BME280;27399;51.516;13.670;2023-04-26T10:44:52;100536.88;;;12.02;53.87
41712;BME280;27399;51.516;13.670;2023-04-26T10:47:31;100530.69;;;11.99;53.45
41712;BME280;27399;51.516;13.670;2023-04-26T10:50:01;100536.03;;;12.00;54.96
41712;BME280;27399;51.516;13.670;2023-04-26T10:52:28;100537.47;;;12.26;53.81
41712;BME280;27399;51.516;13.670;2023-04-26T10:54:58;100529.81;;;11.98;53.00
41712;BME280;27399;51.516;13.670;2023-04-26T11:00:18;100538.91;;;11.80;55.04
41712;BME280;27399;51.516;13.670;2023-04-26T11:05:33;100546.91;;;11.80;56.38
41712;BME280;27399;51.516;13.670;2023-04-26T11:08:19;100551.13;;;12.01;55.80
41712;BME280;27399;51.516;13.670;2023-04-26T11:11:11;100548.59;;;11.87;55.84
41712;BME280;27399;51.516;13.670;2023-04-26T11:13:38;100542.28;;;11.96;53.15
41712;BME280;27399;51.516;13.670;2023-04-26T11:16:06;100543.81;;;12.19;53.35
41712;BME280;27399;51.516;13.670;2023-04-26T11:18:32;100542.16;;;12.08;52.76
41712;BME280;27399;51.516;13.670;2023-04-26T11:20:59;100531.38;;;12.16;53.54
41712;BME280;27399;51.516;13.670;2023-04-26T11:23:27;100533.81;;;12.32;52.34
41712;BME280;27399;51.516;13.670;2023-04-26T11:25:56;100534.56;;;12.43;53.11
41712;BME280;27399;51.516;13.670;2023-04-26T11:28:22;100548.19;;;12.24;53.88
41712;BME280;27399;51.516;13.670;2023-04-26T11:30:48;100550.09;;;12.16;54.12
41712;BME280;27399;51.516;13.670;2023-04-26T11:33:16;100558.13;;;12.13;56.59
41712;BME280;27399;51.516;13.670;2023-04-26T11:35:47;100551.22;;;11.93;56.63
41712;BME280;27399;51.516;13.670;2023-04-26T11:38:13;100566.28;;;12.02;58.44
41712;BME280;27399;51.516;13.670;2023-04-26T11:40:40;100568.03;;;12.05;58.85
41712;BME280;27399;51.516;13.670;2023-04-26T11:43:06;100573.69;;;11.75;57.72
41712;BME280;27399;51.516;13.670;2023-04-26T11:45:34;100566.19;;;12.10;56.87
41712;BME280;27399;51.516;13.670;2023-04-26T11:48:05;100562.63;;;12.08;56.84
41712;BME280;27399;51.516;13.670;2023-04-26T11:50:33;100577.16;;;11.84;55.88
41712;BME280;27399;51.516;13.670;2023-04-26T11:53:00;100573.53;;;11.89;56.16
41712;BME280;27399;51.516;13.670;2023-04-26T11:55:28;100569.94;;;11.93;54.29
41712;BME280;27399;51.516;13.670;2023-04-26T11:57:59;100565.41;;;12.02;53.68
41712;BME280;27399;51.516;13.670;2023-04-26T12:00:25;100567.31;;;11.89;53.62
41712;BME280;27399;51.516;13.670;2023-04-26T12:02:52;100573.41;;;12.02;52.85
41712;BME280;27399;51.516;13.670;2023-04-26T12:05:28;100567.03;;;12.15;53.22
41712;BME280;27399;51.516;13.670;2023-04-26T12:07:58;100564.47;;;12.06;52.29
41712;BME280;27399;51.516;13.670;2023-04-26T12:10:30;100569.66;;;12.17;55.49
41712;BME280;27399;51.516;13.670;2023-04-26T12:12:58;100566.00;;;12.26;54.30
41712;BME280;27399;51.516;13.670;2023-04-26T12:15:28;100565.03;;;12.30;52.95
41712;BME280;27399;51.516;13.670;2023-04-26T12:18:08;100560.69;;;12.22;54.01
41712;BME280;27399;51.516;13.670;2023-04-26T12:20:39;100557.56;;;12.57;55.77
41712;BME280;27399;51.516;13.670;2023-04-26T12:23:07;100559.63;;;12.36;52.25
41712;BME280;27399;51.516;13.670;2023-04-26T12:25:35;100563.13;;;12.39;54.31
41712;BME280;27399;51.516;13.670;2023-04-26T12:28:07;100563.88;;;12.49;54.93
41712;BME280;27399;51.516;13.670;2023-04-26T12:30:36;100575.50;;;12.47;54.92
41712;BME280;27399;51.516;13.670;2023-04-26T12:33:02;100575.66;;;12.34;55.60
41712;BME280;27399;51.516;13.670;2023-04-26T12:35:29;100582.78;;;12.35;57.37
41712;BME280;27399;51.516;13.670;2023-04-26T12:37:55;100582.41;;;11.91;59.34
41712;BME280;27399;51.516;13.670;2023-04-26T12:40:22;100577.94;;;11.98;62.67
41712;BME280;27399;51.516;13.670;2023-04-26T12:42:48;100580.72;;;11.84;60.18
41712;BME280;27399;51.516;13.670;2023-04-26T12:45:15;100578.97;;;11.83;59.63
41712;BME280;27399;51.516;13.670;2023-04-26T12:47:46;100572.72;;;11.84;58.73
41712;BME280;27399;51.516;13.670;2023-04-26T12:50:12;100568.41;;;11.71;58.94
41712;BME280;27399;51.516;13.670;2023-04-26T12:52:39;100577.19;;;11.82;59.69
41712;BME280;27399;51.516;13.670;2023-04-26T12:55:06;100574.59;;;11.74;58.31
41712;BME280;27399;51.516;13.670;2023-04-26T12:57:33;100565.44;;;11.97;61.34
41712;BME280;27399;51.516;13.670;2023-04-26T13:00:00;100573.44;;;11.99;57.76
41712;BME280;27399;51.516;13.670;2023-04-26T13:02:28;100570.78;;;11.94;56.75
41712;BME280;27399;51.516;13.670;2023-04-26T13:04:54;100564.22;;;12.23;57.47
41712;BME280;27399;51.516;13.670;2023-04-26T13:07:21;100565.47;;;11.96;56.36